createdAt,value
2023-01-08T00:02:02.045Z,16.35
2023-01-08T00:04:32.596Z,15.70
2023-01-08T00:07:03.283Z,15.04
2023-01-08T00:09:34.412Z,16.04
2023-01-08T00:12:05.798Z,15.54
2023-01-08T00:14:37.483Z,15.11
2023-01-08T00:17:08.719Z,14.85
2023-01-08T00:19:41.224Z,14.66
2023-01-08T00:22:12.347Z,14.90
2023-01-08T00:24:42.896Z,15.31
2023-01-08T00:27:13.431Z,15.40
2023-01-08T00:29:43.959Z,14.21
2023-01-08T00:32:15.719Z,13.86
2023-01-08T00:34:46.880Z,14.35
2023-01-08T00:37:19.420Z,15.23
2023-01-08T00:39:49.982Z,14.79
2023-01-08T00:42:20.645Z,15.20
2023-01-08T00:44:51.204Z,15.04
2023-01-08T00:47:26.512Z,15.54
2023-01-08T00:49:57.038Z,15.17
2023-01-08T00:52:27.784Z,14.48
2023-01-08T00:54:58.314Z,15.08
2023-01-08T00:57:37.970Z,15.16
2023-01-08T01:00:11.614Z,14.48
2023-01-08T01:02:42.829Z,15.26
2023-01-08T01:05:17.803Z,14.69
2023-01-08T01:07:49.496Z,15.36
2023-01-08T01:10:20.446Z,15.21
2023-01-08T01:12:51.345Z,14.80
2023-01-08T01:15:22.444Z,15.06
2023-01-08T01:17:53.176Z,14.89
2023-01-08T01:20:24.024Z,14.94
2023-01-08T01:22:54.580Z,14.09
2023-01-08T01:25:25.087Z,14.05
2023-01-08T01:27:55.832Z,14.20
2023-01-08T01:30:27.515Z,14.70
2023-01-08T01:32:58.073Z,14.84
2023-01-08T01:35:28.624Z,14.77
2023-01-08T01:37:59.195Z,14.34
2023-01-08T01:40:31.122Z,15.09
2023-01-08T01:43:04.505Z,15.21
2023-01-08T01:45:35.152Z,14.79
2023-01-08T01:48:15.440Z,15.29
2023-01-08T01:50:48.992Z,14.91
2023-01-08T01:53:25.202Z,15.35
2023-01-08T01:55:56.928Z,15.38
2023-01-08T01:58:32.876Z,15.16
2023-01-08T02:01:09.144Z,14.85
2023-01-08T02:03:41.284Z,14.42
2023-01-08T02:06:23.580Z,15.01
2023-01-08T02:09:18.240Z,14.54
2023-01-08T02:11:56.045Z,15.17
2023-01-08T02:14:29.712Z,15.01
2023-01-08T02:17:03.377Z,15.21
2023-01-08T02:19:46.044Z,14.84
2023-01-08T02:22:34.706Z,14.44
2023-01-08T02:25:32.359Z,14.34
2023-01-08T02:28:05.637Z,14.78
2023-01-08T02:30:36.439Z,14.59
2023-01-08T02:33:07.258Z,14.26
2023-01-08T02:35:44.616Z,14.10
2023-01-08T02:38:17.942Z,14.14
2023-01-08T02:40:57.026Z,14.15
2023-01-08T02:43:39.252Z,14.18
2023-01-08T02:46:14.094Z,14.58
2023-01-08T02:48:47.991Z,14.39
2023-01-08T02:51:20.794Z,14.38
2023-01-08T02:53:54.043Z,14.84
2023-01-08T02:56:27.551Z,14.66
2023-01-08T02:59:01.253Z,13.83
2023-01-08T03:01:32.601Z,13.67
2023-01-08T03:04:12.625Z,13.58
2023-01-08T03:06:45.455Z,13.74
2023-01-08T03:09:17.580Z,14.04
2023-01-08T03:11:51.036Z,14.06
2023-01-08T03:14:24.847Z,13.38
2023-01-08T03:17:19.433Z,13.95
2023-01-08T03:19:52.892Z,13.49
2023-01-08T03:22:25.471Z,13.32
2023-01-08T03:24:57.872Z,13.81
2023-01-08T03:27:31.317Z,13.39
2023-01-08T03:30:02.538Z,13.25
2023-01-08T03:32:35.105Z,13.02
2023-01-08T03:35:11.005Z,13.06
2023-01-08T03:37:44.600Z,13.31
2023-01-08T03:40:20.891Z,13.84
2023-01-08T03:42:51.527Z,13.56
2023-01-08T03:45:24.429Z,13.88
2023-01-08T03:47:56.756Z,13.83
2023-01-08T03:50:30.673Z,13.57
2023-01-08T03:53:01.925Z,13.25
2023-01-08T03:55:33.515Z,13.12
2023-01-08T03:58:04.180Z,13.09
2023-01-08T04:00:36.443Z,13.09
2023-01-08T04:03:07.209Z,12.86
2023-01-08T04:05:38.077Z,12.91
2023-01-08T04:08:08.619Z,13.23
2023-01-08T04:10:39.206Z,13.39
2023-01-08T04:13:10.088Z,13.00
2023-01-08T04:15:41.040Z,13.11
2023-01-08T04:18:11.616Z,13.36
2023-01-08T04:20:43.643Z,12.96
2023-01-08T04:23:14.315Z,13.53
2023-01-08T04:25:47.344Z,13.38
2023-01-08T04:28:18.540Z,13.23
2023-01-08T04:30:49.259Z,13.08
2023-01-08T04:33:19.829Z,12.83
2023-01-08T04:35:50.410Z,12.70
2023-01-08T04:38:21.618Z,12.75
2023-01-08T04:40:53.911Z,12.47
2023-01-08T04:43:24.468Z,13.00
2023-01-08T04:45:56.710Z,13.06
2023-01-08T04:48:29.758Z,13.10
2023-01-08T04:51:01.789Z,12.96
2023-01-08T04:53:34.557Z,12.71
2023-01-08T04:56:17.915Z,12.85
2023-01-08T04:58:48.455Z,12.23
2023-01-08T05:01:22.436Z,12.79
2023-01-08T05:03:58.146Z,12.66
2023-01-08T05:06:30.610Z,12.96
2023-01-08T05:09:01.673Z,13.06
2023-01-08T05:11:32.222Z,12.75
2023-01-08T05:14:03.178Z,12.74
2023-01-08T05:16:34.517Z,13.16
2023-01-08T05:19:05.102Z,12.70
2023-01-08T05:21:35.694Z,13.06
2023-01-08T05:24:06.424Z,12.81
2023-01-08T05:26:37.583Z,12.77
2023-01-08T05:29:12.729Z,12.35
2023-01-08T05:31:43.675Z,12.50
2023-01-08T05:34:14.248Z,12.50
2023-01-08T05:36:44.845Z,12.44
2023-01-08T05:39:17.338Z,13.18
2023-01-08T05:41:48.265Z,13.07
2023-01-08T05:44:19.686Z,13.11
2023-01-08T05:46:50.224Z,12.81
2023-01-08T05:49:22.537Z,12.75
2023-01-08T05:51:53.459Z,12.54
2023-01-08T05:54:24.078Z,12.01
2023-01-08T05:56:54.673Z,12.47
2023-01-08T05:59:25.214Z,12.72
2023-01-08T06:01:55.775Z,12.45
2023-01-08T06:04:26.461Z,12.05
2023-01-08T06:06:57.432Z,12.53
2023-01-08T06:09:28.023Z,12.84
2023-01-08T06:11:58.558Z,12.75
2023-01-08T06:14:29.094Z,12.38
2023-01-08T06:16:59.669Z,12.82
2023-01-08T06:19:33.394Z,12.95
2023-01-08T06:22:03.991Z,12.70
2023-01-08T06:24:34.570Z,12.42
2023-01-08T06:27:05.116Z,12.66
2023-01-08T06:29:35.654Z,12.14
2023-01-08T06:32:07.938Z,12.47
2023-01-08T06:34:38.835Z,13.14
2023-01-08T06:37:09.426Z,13.07
2023-01-08T06:39:39.994Z,12.24
2023-01-08T06:42:10.566Z,13.10
2023-01-08T06:44:41.477Z,12.29
2023-01-08T06:47:12.418Z,12.61
2023-01-08T06:49:43.370Z,12.22
2023-01-08T06:52:14.138Z,12.49
2023-01-08T06:54:44.711Z,12.15
2023-01-08T06:57:15.859Z,12.65
2023-01-08T06:59:48.413Z,12.32
2023-01-08T07:02:21.069Z,12.28
2023-01-08T07:04:52.516Z,12.27
2023-01-08T07:07:24.280Z,12.45
2023-01-08T07:09:56.555Z,12.12
2023-01-08T07:12:27.240Z,12.36
2023-01-08T07:14:58.015Z,12.08
2023-01-08T07:17:29.685Z,12.81
2023-01-08T07:20:00.354Z,11.98
2023-01-08T07:22:31.885Z,12.60
2023-01-08T07:25:02.765Z,13.08
2023-01-08T07:27:33.296Z,12.24
2023-01-08T07:30:03.973Z,12.65
2023-01-08T07:32:34.626Z,12.61
2023-01-08T07:35:05.598Z,13.00
2023-01-08T07:37:37.954Z,12.76
2023-01-08T07:40:09.800Z,13.14
2023-01-08T07:42:40.439Z,13.34
2023-01-08T07:45:11.303Z,12.67
2023-01-08T07:47:42.262Z,12.60
2023-01-08T07:50:13.197Z,12.30
2023-01-08T07:52:43.751Z,12.71
2023-01-08T07:55:14.304Z,12.99
2023-01-08T07:57:44.865Z,12.90
2023-01-08T08:00:15.967Z,12.83
2023-01-08T08:02:47.472Z,13.47
2023-01-08T08:05:20.875Z,13.72
2023-01-08T08:07:51.382Z,12.91
2023-01-08T08:10:21.980Z,13.23
2023-01-08T08:12:53.899Z,13.40
2023-01-08T08:15:25.362Z,12.44
2023-01-08T08:17:55.983Z,12.89
2023-01-08T08:20:26.811Z,12.70
2023-01-08T08:23:09.270Z,13.37
2023-01-08T08:25:39.816Z,13.11
2023-01-08T08:28:12.587Z,12.56
2023-01-08T08:30:43.704Z,12.75
2023-01-08T08:33:17.270Z,13.01
2023-01-08T08:35:52.240Z,13.71
2023-01-08T08:38:24.136Z,13.13
2023-01-08T08:40:56.769Z,13.25
2023-01-08T08:43:27.308Z,13.23
2023-01-08T08:45:58.450Z,13.05
2023-01-08T08:48:28.993Z,12.93
2023-01-08T08:50:59.565Z,13.23
2023-01-08T08:53:30.139Z,12.98
2023-01-08T08:56:01.000Z,13.33
2023-01-08T08:58:31.626Z,13.47
2023-01-08T09:01:06.290Z,13.96
2023-01-08T09:03:37.698Z,13.15
2023-01-08T09:06:10.026Z,14.42
2023-01-08T09:08:40.562Z,14.28
2023-01-08T09:11:14.338Z,13.45
2023-01-08T09:13:44.370Z,13.69
2023-01-08T09:16:15.112Z,13.00
2023-01-08T09:18:45.814Z,13.52
2023-01-08T09:21:16.656Z,13.37
2023-01-08T09:23:49.984Z,13.48
2023-01-08T09:26:20.561Z,13.08
2023-01-08T09:28:52.168Z,13.81
2023-01-08T09:31:23.883Z,13.85
2023-01-08T09:33:54.588Z,13.44
2023-01-08T09:36:25.170Z,14.39
2023-01-08T09:38:55.725Z,14.81
2023-01-08T09:41:29.198Z,13.94
2023-01-08T09:44:03.505Z,14.21
2023-01-08T09:46:34.822Z,14.37
2023-01-08T09:49:11.171Z,13.98
2023-01-08T09:51:41.888Z,14.61
2023-01-08T09:54:15.309Z,14.43
2023-01-08T09:56:46.716Z,14.40
2023-01-08T09:59:19.381Z,14.96
2023-01-08T10:01:50.128Z,14.85
2023-01-08T10:04:26.933Z,14.23
2023-01-08T10:07:00.431Z,14.59
2023-01-08T10:09:33.068Z,14.81
2023-01-08T10:12:06.216Z,14.75
2023-01-08T10:14:48.718Z,14.50
2023-01-08T10:17:30.860Z,15.05
2023-01-08T10:20:01.375Z,15.04
2023-01-08T10:22:34.481Z,14.59
2023-01-08T10:25:10.909Z,15.24
2023-01-08T10:27:55.856Z,14.97
2023-01-08T10:30:38.267Z,15.29
2023-01-08T10:33:14.492Z,15.36
2023-01-08T10:35:46.801Z,15.58
2023-01-08T10:38:34.995Z,15.85
2023-01-08T10:41:08.443Z,15.76
2023-01-08T10:43:58.193Z,16.04
2023-01-08T10:46:40.436Z,15.86
2023-01-08T10:49:16.513Z,15.72
2023-01-08T10:51:55.796Z,15.62
2023-01-08T10:54:30.624Z,15.90
2023-01-08T10:57:02.619Z,15.37
2023-01-08T10:59:33.323Z,15.95
2023-01-08T11:02:04.873Z,16.13
2023-01-08T11:04:37.845Z,15.79
2023-01-08T11:07:09.096Z,15.19
2023-01-08T11:09:45.665Z,16.23
2023-01-08T11:12:37.375Z,16.23
2023-01-08T11:15:11.245Z,15.63
2023-01-08T11:17:41.793Z,16.19
2023-01-08T11:20:27.299Z,16.45
2023-01-08T11:23:19.232Z,16.58
2023-01-08T11:26:09.139Z,16.92
2023-01-08T11:28:48.479Z,15.96
2023-01-08T11:31:24.708Z,16.92
2023-01-08T11:33:58.142Z,15.76
2023-01-08T11:36:37.655Z,16.69
2023-01-08T11:39:10.507Z,16.99
2023-01-08T11:41:43.963Z,15.69
2023-01-08T11:44:20.325Z,16.57
2023-01-08T11:47:00.907Z,16.66
2023-01-08T11:50:06.144Z,16.38
2023-01-08T11:52:51.397Z,16.38
2023-01-08T11:55:42.886Z,16.57
2023-01-08T11:58:23.382Z,16.78
2023-01-08T12:00:59.349Z,16.29
2023-01-08T12:03:47.959Z,17.13
2023-01-08T12:06:42.563Z,17.59
2023-01-08T12:09:42.634Z,17.04
2023-01-08T12:12:16.581Z,17.73
2023-01-08T12:14:52.756Z,17.46
2023-01-08T12:17:44.157Z,17.59
2023-01-08T12:20:41.282Z,17.16
2023-01-08T12:23:42.771Z,17.71
2023-01-08T12:29:13.058Z,18.27
2023-01-08T12:31:54.474Z,16.91
2023-01-08T12:34:34.962Z,17.29
2023-01-08T12:37:08.390Z,16.97
2023-01-08T12:39:41.866Z,16.94
2023-01-08T12:42:15.261Z,17.10
2023-01-08T12:44:47.849Z,17.13
2023-01-08T12:47:22.279Z,16.38
2023-01-08T12:49:55.719Z,17.02
2023-01-08T12:52:33.197Z,16.88
2023-01-08T12:55:28.959Z,16.38
2023-01-08T12:58:20.397Z,16.38
2023-01-08T13:00:59.603Z,16.08
2023-01-08T13:03:33.217Z,16.08
2023-01-08T13:06:09.766Z,16.15
2023-01-08T13:08:42.948Z,15.88
2023-01-08T13:11:16.061Z,16.52
2023-01-08T13:13:47.645Z,15.99
2023-01-08T13:16:24.622Z,15.99
2023-01-08T13:19:00.538Z,16.38
2023-01-08T13:21:45.741Z,15.99
2023-01-08T13:24:36.792Z,15.86
2023-01-08T13:27:22.243Z,16.57
2023-01-08T13:29:53.575Z,15.93
2023-01-08T13:32:30.088Z,16.00
2023-01-08T13:35:15.383Z,15.94
2023-01-08T13:37:52.099Z,15.49
2023-01-08T13:40:50.724Z,16.05
2023-01-08T13:43:41.922Z,15.56
2023-01-08T13:46:21.029Z,15.73
2023-01-08T13:49:08.780Z,15.12
2023-01-08T13:51:46.183Z,15.44
2023-01-08T13:54:22.474Z,15.73
2023-01-08T13:56:58.906Z,15.60
2023-01-08T13:59:44.302Z,15.58
2023-01-08T14:02:27.006Z,15.47
2023-01-08T14:04:58.425Z,15.67
2023-01-08T14:07:29.402Z,16.04
2023-01-08T14:10:08.422Z,15.70
2023-01-08T14:12:39.127Z,15.54
2023-01-08T14:15:12.260Z,15.79
2023-01-08T14:17:45.120Z,15.61
2023-01-08T14:20:18.539Z,16.01
2023-01-08T14:22:49.141Z,15.25
2023-01-08T14:25:21.597Z,15.24
2023-01-08T14:28:01.217Z,15.93
2023-01-08T14:30:31.774Z,15.61
2023-01-08T14:33:02.837Z,15.82
2023-01-08T14:35:36.238Z,15.07
2023-01-08T14:38:06.808Z,15.82
2023-01-08T14:40:40.633Z,15.83
2023-01-08T14:43:13.804Z,15.07
2023-01-08T14:45:50.053Z,15.45
2023-01-08T14:48:32.518Z,15.91
2023-01-08T14:51:11.529Z,14.96
2023-01-08T14:53:48.447Z,15.90
2023-01-08T14:56:22.319Z,15.44
2023-01-08T14:58:54.852Z,16.18
2023-01-08T15:01:28.428Z,15.79
2023-01-08T15:04:12.780Z,15.77
2023-01-08T15:06:43.388Z,15.66
2023-01-08T15:09:26.384Z,15.28
2023-01-08T15:11:59.523Z,15.29
2023-01-08T15:14:33.506Z,15.40
2023-01-08T15:17:17.105Z,15.24
2023-01-08T15:19:50.579Z,15.30
2023-01-08T15:22:23.665Z,15.74
2023-01-08T15:24:59.915Z,15.73
2023-01-08T15:27:31.676Z,15.25
2023-01-08T15:30:03.905Z,15.20
2023-01-08T15:32:37.574Z,15.36
2023-01-08T15:35:19.497Z,15.36
2023-01-08T15:37:50.024Z,15.84
2023-01-08T15:40:20.585Z,15.33
2023-01-08T15:43:08.967Z,15.14
2023-01-08T15:45:41.996Z,15.33
2023-01-08T15:48:12.877Z,15.52
2023-01-08T15:50:45.660Z,15.59
2023-01-08T15:53:24.489Z,15.38
2023-01-08T15:55:55.049Z,15.09
2023-01-08T15:58:26.719Z,15.16
2023-01-08T16:00:57.296Z,15.39
2023-01-08T16:03:29.529Z,15.26
2023-01-08T16:06:00.116Z,14.69
2023-01-08T16:08:30.673Z,15.22
2023-01-08T16:11:01.232Z,15.05
2023-01-08T16:13:31.786Z,15.45
2023-01-08T16:16:08.320Z,15.16
2023-01-08T16:18:40.627Z,15.79
2023-01-08T16:21:12.684Z,15.69
2023-01-08T16:23:43.367Z,15.86
2023-01-08T16:26:15.834Z,15.77
2023-01-08T16:28:47.464Z,15.36
2023-01-08T16:31:18.265Z,15.12
2023-01-08T16:33:48.811Z,14.98
2023-01-08T16:36:19.378Z,15.14
2023-01-08T16:38:50.308Z,15.19
2023-01-08T16:41:20.948Z,15.05
2023-01-08T16:43:51.478Z,15.24
2023-01-08T16:46:22.079Z,14.98
2023-01-08T16:48:52.656Z,15.01
2023-01-08T16:51:24.907Z,15.41
2023-01-08T16:53:56.527Z,14.73
2023-01-08T16:56:27.086Z,15.16
2023-01-08T16:58:58.361Z,15.17
2023-01-08T17:01:28.955Z,15.18
2023-01-08T17:04:00.707Z,15.05
2023-01-08T17:06:32.611Z,15.04
2023-01-08T17:09:03.163Z,14.89
2023-01-08T17:11:33.741Z,14.56
2023-01-08T17:14:04.323Z,14.91
2023-01-08T17:16:34.975Z,14.69
2023-01-08T17:19:05.724Z,14.67
2023-01-08T17:21:37.399Z,15.28
2023-01-08T17:24:08.622Z,15.02
2023-01-08T17:26:39.188Z,15.41
2023-01-08T17:29:09.755Z,15.14
2023-01-08T17:31:40.559Z,14.18
2023-01-08T17:34:15.620Z,14.27
2023-01-08T17:36:46.180Z,14.97
2023-01-08T17:39:16.732Z,14.93
2023-01-08T17:42:04.904Z,15.02
2023-01-08T17:44:35.452Z,14.43
2023-01-08T17:47:06.001Z,14.72
2023-01-08T17:49:36.583Z,14.54
2023-01-08T17:52:07.262Z,14.47
2023-01-08T17:54:37.844Z,14.33
2023-01-08T17:57:08.476Z,14.47
2023-01-08T17:59:40.201Z,14.45
2023-01-08T18:02:15.788Z,14.56
2023-01-08T18:04:46.117Z,14.42
2023-01-08T18:07:17.133Z,14.62
2023-01-08T18:09:49.464Z,14.52
2023-01-08T18:12:20.331Z,14.60
2023-01-08T18:14:51.263Z,13.87
2023-01-08T18:17:21.847Z,15.21
2023-01-08T18:19:52.372Z,14.23
2023-01-08T18:22:22.923Z,14.35
2023-01-08T18:24:53.471Z,14.69
2023-01-08T18:27:24.263Z,14.52
2023-01-08T18:29:55.940Z,14.62
2023-01-08T18:32:26.516Z,14.71
2023-01-08T18:34:57.161Z,14.64
2023-01-08T18:37:28.747Z,15.08
2023-01-08T18:39:59.302Z,14.39
2023-01-08T18:42:31.069Z,14.54
2023-01-08T18:45:03.140Z,14.61
2023-01-08T18:47:33.680Z,14.43
2023-01-08T18:50:04.968Z,14.43
2023-01-08T18:52:38.866Z,14.40
2023-01-08T18:55:09.935Z,14.62
2023-01-08T18:57:41.636Z,14.43
2023-01-08T19:00:13.266Z,14.13
2023-01-08T19:02:44.436Z,14.80
2023-01-08T19:05:15.157Z,14.30
2023-01-08T19:07:46.035Z,13.90
2023-01-08T19:10:17.682Z,13.95
2023-01-08T19:12:49.016Z,14.19
2023-01-08T19:15:19.678Z,14.23
2023-01-08T19:17:50.219Z,14.35
2023-01-08T19:20:20.942Z,14.54
2023-01-08T19:22:52.769Z,15.38
2023-01-08T19:25:23.723Z,14.59
2023-01-08T19:27:54.284Z,14.35
2023-01-08T19:30:24.818Z,14.43
2023-01-08T19:32:55.396Z,14.37
2023-01-08T19:35:25.944Z,14.58
2023-01-08T19:37:57.720Z,14.68
2023-01-08T19:40:28.276Z,14.86
2023-01-08T19:43:17.832Z,14.78
2023-01-08T19:45:48.489Z,14.59
2023-01-08T19:48:19.046Z,14.12
2023-01-08T19:50:50.124Z,14.48
2023-01-08T19:53:20.679Z,14.59
2023-01-08T19:55:51.212Z,14.57
2023-01-08T19:58:23.487Z,14.01
2023-01-08T20:00:54.073Z,14.35
2023-01-08T20:03:26.259Z,14.87
2023-01-08T20:05:56.837Z,15.19
2023-01-08T20:08:27.396Z,14.31
2023-01-08T20:10:57.966Z,14.91
2023-01-08T20:13:31.243Z,14.83
2023-01-08T20:16:01.896Z,14.73
2023-01-08T20:18:33.150Z,14.63
2023-01-08T20:21:16.527Z,14.89
2023-01-08T20:23:49.067Z,14.67
2023-01-08T20:26:21.100Z,14.86
2023-01-08T20:28:51.700Z,14.62
2023-01-08T20:31:26.350Z,14.59
2023-01-08T20:33:58.821Z,14.80
2023-01-08T20:36:32.641Z,14.58
2023-01-08T20:39:05.765Z,14.53
2023-01-08T20:41:37.541Z,14.60
2023-01-08T20:44:09.185Z,14.84
2023-01-08T20:46:40.335Z,14.06
2023-01-08T20:49:17.192Z,14.69
2023-01-08T20:51:57.864Z,14.69
2023-01-08T20:54:20.359Z,14.68
2023-01-08T20:56:51.947Z,14.89
2023-01-08T20:59:24.917Z,14.67
2023-01-08T21:02:00.642Z,14.33
2023-01-08T21:04:32.231Z,14.93
2023-01-08T21:07:08.363Z,14.86
2023-01-08T21:09:40.489Z,14.39
2023-01-08T21:12:12.756Z,14.61
2023-01-08T21:14:45.377Z,15.19
2023-01-08T21:17:17.343Z,14.60
2023-01-08T21:19:53.340Z,13.92
2023-01-08T21:22:26.414Z,14.65
2023-01-08T21:24:58.309Z,13.99
2023-01-08T21:27:31.708Z,14.48
2023-01-08T21:30:14.811Z,14.51
2023-01-08T21:32:47.092Z,15.02
2023-01-08T21:35:20.739Z,15.22
2023-01-08T21:37:52.844Z,14.76
2023-01-08T21:40:26.479Z,14.71
2023-01-08T21:43:17.717Z,14.01
2023-01-08T21:45:58.082Z,13.52
2023-01-08T21:48:33.462Z,14.93
2023-01-08T21:51:05.587Z,14.21
2023-01-08T21:53:38.279Z,14.22
2023-01-08T21:56:11.168Z,14.51
2023-01-08T21:58:44.022Z,14.09
2023-01-08T22:01:16.901Z,13.98
2023-01-08T22:03:50.973Z,14.19
2023-01-08T22:06:27.880Z,14.04
2023-01-08T22:08:59.431Z,14.48
2023-01-08T22:11:31.308Z,13.85
2023-01-08T22:14:06.575Z,14.05
2023-01-08T22:16:40.872Z,13.55
2023-01-08T22:19:14.936Z,14.22
2023-01-08T22:21:48.746Z,13.90
2023-01-08T22:24:25.493Z,13.66
2023-01-08T22:26:57.233Z,14.25
2023-01-08T22:29:33.731Z,14.35
2023-01-08T22:32:06.846Z,13.78
2023-01-08T22:34:38.551Z,13.74
2023-01-08T22:37:12.033Z,14.32
2023-01-08T22:39:44.737Z,13.88
2023-01-08T22:42:20.310Z,13.63
2023-01-08T22:45:02.981Z,13.87
2023-01-08T22:47:37.999Z,14.32
2023-01-08T22:50:13.142Z,13.58
2023-01-08T22:52:45.573Z,13.51
2023-01-08T22:55:16.619Z,13.91
2023-01-08T22:57:48.939Z,13.75
2023-01-08T23:00:22.469Z,14.24
2023-01-08T23:02:55.426Z,14.21
2023-01-08T23:05:26.889Z,14.10
2023-01-08T23:08:01.765Z,13.69
2023-01-08T23:10:37.991Z,13.95
2023-01-08T23:13:11.198Z,13.35
2023-01-08T23:15:46.873Z,13.87
2023-01-08T23:18:18.829Z,13.11
2023-01-08T23:20:49.356Z,13.57
2023-01-08T23:23:20.122Z,13.58
2023-01-08T23:25:50.817Z,13.39
2023-01-08T23:28:24.694Z,13.50
2023-01-08T23:30:55.263Z,13.65
2023-01-08T23:33:25.943Z,13.25
2023-01-08T23:35:56.473Z,13.83
2023-01-08T23:38:27.569Z,13.88
2023-01-08T23:40:59.248Z,13.55
2023-01-08T23:43:31.125Z,13.47
2023-01-08T23:46:08.769Z,13.98
2023-01-08T23:48:39.589Z,14.07
2023-01-08T23:51:10.631Z,13.89
2023-01-08T23:53:42.311Z,13.65
2023-01-08T23:56:12.934Z,14.06
2023-01-08T23:58:45.163Z,13.70
